Time;durP1;ratioP1;P1;durP2;ratioP2;P2;SDS_P1;SDS_P2;PMS_P1;PMS_P2;Temp;Humidity;BMP_temperature;BMP_pressure;BME280_temperature;BME280_humidity;BME280_pressure;Samples;Min_cycle;Max_cycle;Signal;HPM_P1;HPM_P2
2024/01/15 00:01:22;;;;;;;16.27;10.47;;;1.20;99.90;;;;;;4782055;29;20630;-89
2024/01/15 00:03:48;;;;;;;20.20;11.63;;;1.20;99.90;;;;;;4784343;29;20215;-87
2024/01/15 00:06:14;;;;;;;16.33;10.87;;;1.30;99.90;;;;;;4777609;30;20214;-88
2024/01/15 00:09:07;;;;;;;16.60;10.70;;;1.30;99.90;;;;;;4776579;29;20638;-86
2024/01/15 00:11:33;;;;;;;17.70;10.23;;;1.30;99.90;;;;;;4771891;30;20195;-87
2024/01/15 00:14:00;;;;;;;16.13;9.73;;;1.30;99.90;;;;;;4751389;30;20225;-85
2024/01/15 00:16:34;;;;;;;15.60;9.73;;;1.40;99.90;;;;;;4761465;30;20187;-90
2024/01/15 00:19:00;;;;;;;15.17;9.60;;;1.30;99.90;;;;;;4756503;30;20233;-89
2024/01/15 00:21:25;;;;;;;15.73;9.57;;;1.40;99.90;;;;;;4762380;30;20277;-91
2024/01/15 00:23:51;;;;;;;16.63;9.90;;;1.40;99.90;;;;;;4761295;30;20196;-91
2024/01/15 00:26:25;;;;;;;15.40;9.17;;;1.40;99.90;;;;;;4764087;30;20247;-87
2024/01/15 00:28:50;;;;;;;16.10;9.53;;;1.40;99.90;;;;;;4760032;30;20196;-90
2024/01/15 00:31:17;;;;;;;16.23;8.83;;;1.40;99.90;;;;;;4767710;30;20205;-86
2024/01/15 00:33:43;;;;;;;15.20;8.43;;;1.50;99.90;;;;;;4766820;30;20280;-85
2024/01/15 00:36:31;;;;;;;13.97;8.70;;;1.50;99.90;;;;;;4761300;30;20199;-85
2024/01/15 00:38:56;;;;;;;14.17;8.60;;;1.60;99.90;;;;;;4763336;30;20223;-84
2024/01/15 00:41:22;;;;;;;14.03;7.80;;;1.60;99.90;;;;;;4770246;30;20206;-85
2024/01/15 00:43:51;;;;;;;13.20;7.77;;;1.60;99.90;;;;;;4761602;30;20260;-85
2024/01/15 00:46:25;;;;;;;15.73;7.93;;;1.60;99.90;;;;;;4769405;30;20197;-85
2024/01/15 00:48:50;;;;;;;12.60;7.33;;;1.70;99.90;;;;;;4768289;30;20247;-89
2024/01/15 00:51:16;;;;;;;13.20;7.23;;;1.70;99.90;;;;;;4768615;30;20195;-84
2024/01/15 00:53:42;;;;;;;11.90;7.10;;;1.70;99.90;;;;;;4758853;30;20296;-86
2024/01/15 00:56:07;;;;;;;13.03;6.83;;;1.60;99.90;;;;;;4769952;30;20252;-85
2024/01/15 00:58:33;;;;;;;15.80;6.97;;;1.60;99.90;;;;;;4762960;30;20231;-84
2024/01/15 01:00:59;;;;;;;10.00;6.43;;;1.50;99.90;;;;;;4769900;30;20195;-86
2024/01/15 01:03:24;;;;;;;11.30;7.33;;;1.50;99.90;;;;;;4762299;30;20233;-85
2024/01/15 01:05:50;;;;;;;10.93;5.83;;;1.40;99.90;;;;;;4771632;30;20202;-84
2024/01/15 01:08:16;;;;;;;12.37;6.80;;;1.40;99.90;;;;;;4758995;30;20227;-90
2024/01/15 01:10:45;;;;;;;11.77;6.53;;;1.40;99.90;;;;;;4766959;30;20287;-85
2024/01/15 01:13:11;;;;;;;13.73;6.50;;;1.60;99.90;;;;;;4773149;30;20246;-86
2024/01/15 01:15:37;;;;;;;15.00;7.27;;;1.60;99.90;;;;;;4776550;30;20619;-87
2024/01/15 01:18:05;;;;;;;10.47;6.10;;;1.50;99.90;;;;;;4776217;30;20227;-85
2024/01/15 01:20:30;;;;;;;11.57;6.60;;;1.40;99.90;;;;;;4792294;30;20291;-86
2024/01/15 01:22:56;;;;;;;14.00;6.87;;;1.40;99.90;;;;;;4776805;30;20199;-86
2024/01/15 01:25:22;;;;;;;10.80;6.60;;;1.30;99.90;;;;;;4760828;30;20620;-88
2024/01/15 01:27:49;;;;;;;11.57;6.40;;;1.30;99.90;;;;;;4758731;30;20213;-88
2024/01/15 01:30:14;;;;;;;10.47;6.20;;;1.20;99.90;;;;;;4759066;30;20624;-87
2024/01/15 01:32:40;;;;;;;10.97;6.23;;;1.20;99.90;;;;;;4758480;30;20194;-86
2024/01/15 01:35:06;;;;;;;12.10;6.07;;;1.30;99.90;;;;;;4758535;30;20208;-87
2024/01/15 01:37:34;;;;;;;9.57;6.00;;;1.30;99.90;;;;;;4775663;30;20274;-86
2024/01/15 01:40:00;;;;;;;11.30;5.47;;;1.30;99.90;;;;;;4775940;30;20605;-87
2024/01/15 01:42:26;;;;;;;12.90;5.27;;;1.40;99.90;;;;;;4768890;30;20191;-85
2024/01/15 01:44:51;;;;;;;11.80;5.53;;;1.30;99.90;;;;;;4776209;30;20199;-86
2024/01/15 01:47:18;;;;;;;11.73;4.70;;;1.30;99.90;;;;;;4775806;29;20191;-85
2024/01/15 01:49:43;;;;;;;15.03;5.20;;;1.30;99.90;;;;;;4784780;30;20191;-86
2024/01/15 01:52:10;;;;;;;7.60;4.23;;;1.40;99.90;;;;;;4776225;30;20632;-85
2024/01/15 01:54:38;;;;;;;11.80;4.73;;;1.40;99.90;;;;;;4775663;30;20289;-87
2024/01/15 01:57:49;;;;;;;10.77;4.40;;;1.40;99.90;;;;;;4762725;30;20203;-87
2024/01/15 02:00:15;;;;;;;8.10;4.33;;;1.40;99.90;;;;;;4758325;30;20261;-85
2024/01/15 02:02:41;;;;;;;10.73;4.70;;;1.50;99.90;;;;;;4757773;30;20291;-91
2024/01/15 02:05:07;;;;;;;8.67;4.17;;;1.40;99.90;;;;;;4762151;30;20220;-89
2024/01/15 02:07:35;;;;;;;9.23;4.17;;;1.40;99.90;;;;;;4789831;30;20652;-85
2024/01/15 02:10:01;;;;;;;10.53;4.70;;;1.40;99.90;;;;;;4766538;30;20287;-86
2024/01/15 02:12:27;;;;;;;7.23;4.30;;;1.40;99.90;;;;;;4763982;30;20308;-87
2024/01/15 02:14:53;;;;;;;10.27;4.43;;;1.40;99.90;;;;;;4775618;30;20213;-87
2024/01/15 02:17:20;;;;;;;11.23;4.10;;;1.40;99.90;;;;;;4775728;30;20551;-85
2024/01/15 02:19:46;;;;;;;8.40;3.93;;;1.40;99.90;;;;;;4775762;30;20232;-93
2024/01/15 02:22:12;;;;;;;7.17;3.90;;;1.40;99.90;;;;;;4768845;30;20200;-90
2024/01/15 02:24:37;;;;;;;9.60;3.90;;;1.50;99.90;;;;;;4775143;30;20542;-92
2024/01/15 02:27:03;;;;;;;9.20;3.93;;;1.40;99.90;;;;;;4775636;30;20199;-87
2024/01/15 02:29:29;;;;;;;7.33;3.60;;;1.50;99.90;;;;;;4760579;30;20650;-85
2024/01/15 02:31:55;;;;;;;8.13;3.77;;;1.40;99.90;;;;;;4775506;30;20195;-87
2024/01/15 02:34:22;;;;;;;7.73;3.30;;;1.50;99.90;;;;;;4767826;30;20251;-88
2024/01/15 02:36:48;;;;;;;8.67;3.40;;;1.50;99.90;;;;;;4775272;30;20202;-88
2024/01/15 02:39:14;;;;;;;9.03;2.90;;;1.40;99.90;;;;;;4774930;30;20223;-88
2024/01/15 02:41:39;;;;;;;11.83;3.20;;;1.50;99.90;;;;;;4771976;30;20230;-86
2024/01/15 02:44:05;;;;;;;15.07;3.23;;;1.50;99.90;;;;;;4756375;30;20262;-85
2024/01/15 02:46:31;;;;;;;12.67;3.07;;;1.50;99.90;;;;;;4760553;30;20196;-85
2024/01/15 02:48:56;;;;;;;7.67;3.00;;;1.50;99.90;;;;;;4774897;30;20363;-88
2024/01/15 02:51:22;;;;;;;10.43;2.83;;;1.50;99.90;;;;;;4775405;30;20254;-86
2024/01/15 02:53:50;;;;;;;13.63;2.77;;;1.60;99.90;;;;;;4791339;29;20191;-85
2024/01/15 02:56:15;;;;;;;11.37;2.83;;;1.60;99.90;;;;;;4774907;30;20286;-89
2024/01/15 02:58:49;;;;;;;10.30;2.57;;;1.60;99.90;;;;;;4780614;30;20310;-87
2024/01/15 03:01:15;;;;;;;14.43;3.27;;;1.60;99.90;;;;;;4763964;30;20542;-87
2024/01/15 03:03:41;;;;;;;8.47;2.67;;;1.60;99.90;;;;;;4774742;30;20203;-91
2024/01/15 03:06:06;;;;;;;11.27;2.33;;;1.70;99.90;;;;;;4774813;30;20203;-87
2024/01/15 03:08:32;;;;;;;8.07;2.03;;;1.70;99.90;;;;;;4767302;30;20195;-85
2024/01/15 03:10:58;;;;;;;12.80;1.97;;;1.70;99.90;;;;;;4777660;30;20196;-85
2024/01/15 03:13:24;;;;;;;7.40;1.80;;;1.70;99.90;;;;;;4756827;30;20298;-86
2024/01/15 03:15:50;;;;;;;6.83;2.47;;;1.70;99.90;;;;;;4756613;30;20287;-85
2024/01/15 03:18:15;;;;;;;10.50;2.63;;;1.80;99.90;;;;;;4756639;30;20298;-89
2024/01/15 03:20:41;;;;;;;6.60;1.67;;;1.80;99.90;;;;;;4767269;30;20195;-90
2024/01/15 03:23:07;;;;;;;6.93;1.97;;;1.80;99.90;;;;;;4774544;30;20209;-85
2024/01/15 03:25:32;;;;;;;6.10;2.20;;;1.80;99.90;;;;;;4759374;30;20287;-86
2024/01/15 03:27:58;;;;;;;7.80;2.23;;;1.70;99.90;;;;;;4774153;30;20229;-88
2024/01/15 03:30:24;;;;;;;9.83;2.20;;;1.70;99.90;;;;;;4773948;30;20195;-86
2024/01/15 03:32:50;;;;;;;13.70;2.33;;;1.70;99.90;;;;;;4773952;29;20209;-87
2024/01/15 03:35:15;;;;;;;8.83;1.97;;;1.80;99.90;;;;;;4790182;30;20205;-85
2024/01/15 03:37:41;;;;;;;10.53;1.93;;;1.80;99.90;;;;;;4773728;30;20290;-86
2024/01/15 03:40:07;;;;;;;6.80;1.93;;;1.80;99.90;;;;;;4766217;30;20292;-84
2024/01/15 03:42:33;;;;;;;8.50;2.00;;;1.80;99.90;;;;;;4774053;30;20199;-91
2024/01/15 03:44:59;;;;;;;7.40;1.87;;;1.80;99.90;;;;;;4774186;30;20200;-85
2024/01/15 03:47:25;;;;;;;9.13;1.93;;;1.90;99.90;;;;;;4773990;30;20199;-85
2024/01/15 03:49:59;;;;;;;10.90;2.10;;;1.80;99.90;;;;;;4770037;30;20207;-86
2024/01/15 03:52:28;;;;;;;8.17;1.80;;;1.80;99.90;;;;;;4771983;30;20195;-86
2024/01/15 03:54:53;;;;;;;6.13;1.53;;;1.80;99.90;;;;;;4773889;30;20259;-89
2024/01/15 03:57:19;;;;;;;7.13;2.50;;;1.80;99.90;;;;;;4758553;30;20226;-86
2024/01/15 03:59:47;;;;;;;7.83;1.67;;;1.70;99.90;;;;;;4755995;30;20227;-87
2024/01/15 04:02:12;;;;;;;9.27;2.03;;;1.80;99.90;;;;;;4749395;30;20341;-88
2024/01/15 04:04:42;;;;;;;11.63;1.80;;;1.80;99.90;;;;;;4773167;30;20640;-85
2024/01/15 04:07:09;;;;;;;8.93;1.90;;;2.00;99.90;;;;;;4773675;30;20523;-87
2024/01/15 04:09:35;;;;;;;9.13;2.10;;;1.90;99.90;;;;;;4772892;30;20291;-91
2024/01/15 04:12:01;;;;;;;8.50;1.67;;;1.90;99.90;;;;;;4782941;30;20230;-89
2024/01/15 04:14:27;;;;;;;12.40;2.00;;;1.90;99.90;;;;;;4757413;30;20264;-87
2024/01/15 04:16:52;;;;;;;6.23;1.57;;;1.90;99.90;;;;;;4774028;30;20203;-89
2024/01/15 04:19:22;;;;;;;7.63;1.80;;;2.00;99.90;;;;;;4759145;30;20570;-86
2024/01/15 04:21:48;;;;;;;4.97;1.67;;;1.90;99.90;;;;;;4773762;30;20349;-89
2024/01/15 04:24:13;;;;;;;8.40;1.50;;;1.90;99.90;;;;;;4766901;30;20294;-85
2024/01/15 04:26:39;;;;;;;8.80;1.60;;;1.80;99.90;;;;;;4758257;30;20198;-85
2024/01/15 04:29:07;;;;;;;7.43;1.67;;;1.80;99.90;;;;;;4773731;30;20290;-92
2024/01/15 04:31:32;;;;;;;7.43;1.40;;;1.80;99.90;;;;;;4773624;30;20639;-90
2024/01/15 04:33:58;;;;;;;6.20;1.40;;;1.70;99.90;;;;;;4773795;30;20258;-88
2024/01/15 04:36:24;;;;;;;6.20;1.23;;;1.70;99.90;;;;;;4773518;30;20202;-90
2024/01/15 04:38:51;;;;;;;6.73;1.77;;;1.70;99.90;;;;;;4773420;30;20223;-89
2024/01/15 04:41:17;;;;;;;9.63;1.67;;;1.70;99.90;;;;;;4765235;30;20223;-86
2024/01/15 04:43:43;;;;;;;6.20;1.30;;;1.50;99.90;;;;;;4773683;30;20204;-86
2024/01/15 04:46:09;;;;;;;9.77;1.90;;;1.50;99.90;;;;;;4773510;30;20229;-88
2024/01/15 04:48:37;;;;;;;10.73;1.77;;;1.50;99.90;;;;;;4773604;30;20200;-89
2024/01/15 04:51:08;;;;;;;8.60;1.77;;;1.40;99.90;;;;;;4773728;30;20203;-86
2024/01/15 04:53:35;;;;;;;8.60;2.30;;;1.50;99.90;;;;;;4766192;30;20203;-91
2024/01/15 04:56:00;;;;;;;10.37;2.13;;;1.60;99.90;;;;;;4773194;30;20195;-89
2024/01/15 04:58:27;;;;;;;11.87;1.93;;;1.60;99.90;;;;;;4757423;30;20224;-88
2024/01/15 05:00:54;;;;;;;6.23;1.83;;;1.60;99.90;;;;;;4755598;30;20295;-90
2024/01/15 05:03:20;;;;;;;12.97;2.80;;;1.60;99.90;;;;;;4755749;30;20257;-86
2024/01/15 05:05:45;;;;;;;8.07;1.63;;;1.60;99.90;;;;;;4755436;30;20204;-92
2024/01/15 05:08:11;;;;;;;11.23;2.10;;;1.70;99.90;;;;;;4761758;30;20230;-87
2024/01/15 05:10:38;;;;;;;7.83;2.00;;;1.70;99.90;;;;;;4772162;30;20195;-87
2024/01/15 05:13:04;;;;;;;11.30;2.00;;;1.70;99.90;;;;;;4783465;30;20204;-89
2024/01/15 05:15:30;;;;;;;14.83;2.70;;;1.70;99.90;;;;;;4772240;30;20203;-88
2024/01/15 05:17:55;;;;;;;7.87;1.60;;;1.70;99.90;;;;;;4765590;30;20210;-86
2024/01/15 05:20:21;;;;;;;8.77;1.90;;;1.70;99.90;;;;;;4757146;30;20720;-90
2024/01/15 05:22:47;;;;;;;9.57;2.07;;;1.80;99.90;;;;;;4776476;29;20201;-88
2024/01/15 05:25:13;;;;;;;5.13;1.60;;;1.80;99.90;;;;;;4776216;30;20225;-88
2024/01/15 05:27:38;;;;;;;5.97;1.60;;;1.70;99.90;;;;;;4776160;30;20218;-88
2024/01/15 05:30:12;;;;;;;10.17;1.77;;;1.70;99.90;;;;;;4776575;30;20199;-87
2024/01/15 05:32:37;;;;;;;6.67;1.47;;;1.70;99.90;;;;;;4768645;30;20199;-85
2024/01/15 05:35:03;;;;;;;9.90;1.80;;;1.80;99.90;;;;;;4770809;30;20259;-87
2024/01/15 05:37:29;;;;;;;5.10;1.53;;;1.70;99.90;;;;;;4774557;30;20206;-87
2024/01/15 05:40:06;;;;;;;6.17;2.00;;;1.80;99.90;;;;;;4770905;30;20304;-88
2024/01/15 05:42:32;;;;;;;10.93;1.60;;;1.80;99.90;;;;;;4773169;30;20187;-87
2024/01/15 05:44:59;;;;;;;6.47;1.57;;;1.80;99.90;;;;;;4758542;30;20600;-85
2024/01/15 05:47:25;;;;;;;10.80;2.17;;;1.70;99.90;;;;;;4774212;30;20229;-89
2024/01/15 05:49:56;;;;;;;6.87;1.67;;;1.70;99.90;;;;;;4776405;30;20187;-85
2024/01/15 05:52:23;;;;;;;10.93;1.80;;;1.70;99.90;;;;;;4768533;30;20228;-85
2024/01/15 05:54:49;;;;;;;8.10;1.83;;;1.60;99.90;;;;;;4775952;30;20199;-85
2024/01/15 05:57:15;;;;;;;8.40;2.30;;;1.50;99.90;;;;;;4775590;30;20548;-87
2024/01/15 05:59:46;;;;;;;12.17;1.97;;;1.50;99.90;;;;;;4775740;30;20223;-86
2024/01/15 06:02:12;;;;;;;9.63;2.30;;;1.50;99.90;;;;;;4791773;30;20222;-87
2024/01/15 06:04:37;;;;;;;12.93;2.10;;;1.60;99.90;;;;;;4768639;30;20555;-88
2024/01/15 06:07:03;;;;;;;12.33;2.07;;;1.50;99.90;;;;;;4775567;30;20248;-88
2024/01/15 06:09:32;;;;;;;12.87;1.50;;;1.50;99.90;;;;;;4774553;30;20214;-87
2024/01/15 06:11:58;;;;;;;8.13;1.73;;;1.60;99.90;;;;;;4768028;30;20201;-86
2024/01/15 06:14:23;;;;;;;12.70;2.47;;;1.60;99.90;;;;;;4766705;30;20195;-87
2024/01/15 06:16:49;;;;;;;9.83;1.40;;;1.70;99.90;;;;;;4758830;30;20192;-85
2024/01/15 06:19:15;;;;;;;8.03;1.33;;;1.70;99.90;;;;;;4764781;30;20322;-88
2024/01/15 06:21:43;;;;;;;10.53;2.10;;;1.60;99.90;;;;;;4753459;30;20199;-90
2024/01/15 06:24:09;;;;;;;11.23;1.77;;;1.50;99.90;;;;;;4755566;30;20196;-90
2024/01/15 06:26:35;;;;;;;8.27;1.73;;;1.50;99.90;;;;;;4766252;30;20196;-90
2024/01/15 06:29:02;;;;;;;8.33;2.10;;;1.40;99.90;;;;;;4768066;30;20207;-86
2024/01/15 06:31:30;;;;;;;7.93;1.50;;;1.40;99.90;;;;;;4775380;30;20201;-88
2024/01/15 06:33:56;;;;;;;3.87;1.50;;;1.40;99.90;;;;;;4769838;30;20251;-86
2024/01/15 06:36:21;;;;;;;14.03;2.23;;;1.40;99.90;;;;;;4772473;30;20206;-87
2024/01/15 06:38:47;;;;;;;11.17;1.93;;;1.40;99.90;;;;;;4767631;30;20276;-90
2024/01/15 06:41:16;;;;;;;6.83;1.80;;;1.40;99.90;;;;;;4774653;30;20209;-86
2024/01/15 06:43:41;;;;;;;12.30;2.20;;;1.50;99.90;;;;;;4774869;30;20233;-87
2024/01/15 06:46:07;;;;;;;9.20;2.07;;;1.60;99.90;;;;;;4774840;30;20230;-86
2024/01/15 06:48:33;;;;;;;7.50;1.27;;;1.50;99.90;;;;;;4790807;30;20195;-88
2024/01/15 06:51:00;;;;;;;7.37;2.03;;;1.50;99.90;;;;;;4775113;30;20199;-93
2024/01/15 06:53:26;;;;;;;8.33;1.60;;;1.50;99.90;;;;;;4759195;30;20204;-86
2024/01/15 06:55:52;;;;;;;7.40;1.80;;;1.40;99.90;;;;;;4757127;30;20203;-87
2024/01/15 06:58:18;;;;;;;5.43;1.60;;;1.30;99.90;;;;;;4772043;30;20223;-86
2024/01/15 07:00:45;;;;;;;5.37;1.87;;;1.30;99.90;;;;;;4775194;30;20203;-89
2024/01/15 07:03:11;;;;;;;10.37;1.80;;;1.20;99.90;;;;;;4774978;30;20206;-85
2024/01/15 07:05:37;;;;;;;7.00;2.10;;;1.30;99.90;;;;;;4757775;30;20204;-86
2024/01/15 07:08:03;;;;;;;14.67;2.00;;;1.30;99.90;;;;;;4769805;30;20217;-85
2024/01/15 07:10:52;;;;;;;10.30;2.17;;;1.30;99.90;;;;;;4773907;30;20627;-86
2024/01/15 07:13:18;;;;;;;7.23;1.47;;;1.30;99.90;;;;;;4774739;30;20198;-89
2024/01/15 07:15:44;;;;;;;7.10;1.50;;;1.30;99.90;;;;;;4774432;30;20289;-88
2024/01/15 07:18:09;;;;;;;12.70;2.47;;;1.40;99.90;;;;;;4774555;30;20199;-87
2024/01/15 07:20:37;;;;;;;8.80;1.60;;;1.40;99.90;;;;;;4774665;30;20640;-89
2024/01/15 07:23:04;;;;;;;5.97;1.63;;;1.40;99.90;;;;;;4774451;30;20286;-86
2024/01/15 07:25:29;;;;;;;6.10;1.60;;;1.50;99.90;;;;;;4774319;30;20203;-88
2024/01/15 07:27:55;;;;;;;7.03;2.00;;;1.40;99.90;;;;;;4774345;30;20191;-86
2024/01/15 07:30:23;;;;;;;6.93;1.27;;;1.40;99.90;;;;;;4773694;30;20203;-84
2024/01/15 07:32:49;;;;;;;6.87;2.00;;;1.40;99.90;;;;;;4767410;29;20653;-87
2024/01/15 07:35:15;;;;;;;11.13;2.40;;;1.40;99.90;;;;;;4774358;30;20289;-87
2024/01/15 07:37:41;;;;;;;6.43;2.13;;;1.40;99.90;;;;;;4774135;30;20207;-86
2024/01/15 07:40:08;;;;;;;6.90;1.90;;;1.40;99.90;;;;;;4773252;30;20574;-85
2024/01/15 07:42:35;;;;;;;9.93;2.57;;;1.40;99.90;;;;;;4766343;30;20650;-86
2024/01/15 07:45:01;;;;;;;11.00;2.60;;;1.40;99.90;;;;;;4790024;30;20196;-86
2024/01/15 07:47:27;;;;;;;9.27;2.50;;;1.40;99.90;;;;;;4773904;30;20259;-87
2024/01/15 07:49:53;;;;;;;7.97;2.50;;;1.50;99.90;;;;;;4774140;30;20202;-86
2024/01/15 07:52:20;;;;;;;6.37;2.17;;;1.50;99.90;;;;;;4773992;30;20205;-84
2024/01/15 07:54:45;;;;;;;11.60;2.50;;;1.50;99.90;;;;;;4789930;30;20187;-86
2024/01/15 07:57:11;;;;;;;13.97;2.80;;;1.50;99.90;;;;;;4773613;30;20203;-85
2024/01/15 07:59:37;;;;;;;9.03;2.20;;;1.60;99.90;;;;;;4773931;30;20313;-85
2024/01/15 08:02:27;;;;;;;6.17;1.93;;;1.50;99.90;;;;;;4774083;30;20211;-87
2024/01/15 08:04:52;;;;;;;10.10;2.40;;;1.50;99.90;;;;;;4773770;30;20248;-85
2024/01/15 08:07:18;;;;;;;11.77;2.30;;;1.50;99.90;;;;;;4773886;30;20195;-87
2024/01/15 08:09:44;;;;;;;5.30;2.20;;;1.50;99.90;;;;;;4773252;30;20202;-86
2024/01/15 08:12:23;;;;;;;10.13;2.70;;;1.50;99.90;;;;;;4773520;30;20203;-87
2024/01/15 08:14:48;;;;;;;11.13;2.47;;;1.50;99.90;;;;;;4767411;30;20263;-86
2024/01/15 08:17:15;;;;;;;5.67;1.87;;;1.40;99.90;;;;;;4773802;30;20675;-85
2024/01/15 08:19:46;;;;;;;7.73;2.20;;;1.50;99.90;;;;;;4770569;30;20220;-85
2024/01/15 08:22:14;;;;;;;6.97;1.70;;;1.50;99.90;;;;;;4763133;30;20207;-87
2024/01/15 08:24:39;;;;;;;9.03;2.20;;;1.50;99.90;;;;;;4755505;30;20659;-87
2024/01/15 08:27:05;;;;;;;9.13;2.10;;;1.50;99.90;;;;;;4768984;30;20199;-85
2024/01/15 08:29:33;;;;;;;6.07;1.80;;;1.60;99.90;;;;;;4773636;30;20202;-85
2024/01/15 08:32:03;;;;;;;7.60;2.53;;;1.60;99.90;;;;;;4765521;30;20204;-86
2024/01/15 08:34:29;;;;;;;11.53;2.53;;;1.70;99.90;;;;;;4786011;30;20399;-85
2024/01/15 08:36:54;;;;;;;7.83;2.03;;;1.70;99.90;;;;;;4768967;30;20612;-88
2024/01/15 08:39:20;;;;;;;9.60;2.43;;;1.70;99.90;;;;;;4755836;30;20227;-87
2024/01/15 08:41:47;;;;;;;7.17;2.30;;;1.70;99.90;;;;;;4773222;30;20328;-85
2024/01/15 08:44:13;;;;;;;7.40;2.27;;;1.70;99.90;;;;;;4773507;30;20206;-85
2024/01/15 08:46:38;;;;;;;7.53;2.17;;;1.80;99.90;;;;;;4773390;30;20606;-86
2024/01/15 08:49:05;;;;;;;8.17;3.10;;;1.70;99.90;;;;;;4760505;30;20202;-89
2024/01/15 08:51:31;;;;;;;8.73;2.83;;;1.60;99.90;;;;;;4771819;30;20191;-87
2024/01/15 08:53:58;;;;;;;11.73;3.03;;;1.70;99.90;;;;;;4773557;30;20202;-86
2024/01/15 08:56:23;;;;;;;5.20;2.33;;;1.70;99.90;;;;;;4772993;30;20290;-85
2024/01/15 08:58:50;;;;;;;5.77;2.80;;;1.70;99.90;;;;;;4775967;30;20258;-86
2024/01/15 09:01:15;;;;;;;8.30;3.07;;;1.60;99.90;;;;;;4777012;30;20244;-89
2024/01/15 09:03:42;;;;;;;7.30;3.07;;;1.60;99.90;;;;;;4763962;30;20200;-88
2024/01/15 09:06:09;;;;;;;9.40;3.00;;;1.60;99.90;;;;;;4768184;30;20223;-87
2024/01/15 09:08:35;;;;;;;6.10;2.83;;;1.50;99.90;;;;;;4776503;30;20201;-88
2024/01/15 09:11:02;;;;;;;4.63;2.67;;;1.50;99.90;;;;;;4775426;30;20209;-85
2024/01/15 09:14:00;;;;;;;6.40;2.50;;;1.40;99.90;;;;;;4776914;30;20259;-86
2024/01/15 09:16:26;;;;;;;4.67;2.60;;;1.40;99.90;;;;;;4776447;30;20273;-85
2024/01/15 09:18:52;;;;;;;9.17;2.90;;;1.40;99.90;;;;;;4792382;29;20219;-85
2024/01/15 09:21:17;;;;;;;4.37;2.80;;;1.30;99.90;;;;;;4776611;30;20228;-86
2024/01/15 09:23:43;;;;;;;8.47;3.30;;;1.30;99.90;;;;;;4758529;30;20238;-87
2024/01/15 09:26:09;;;;;;;8.30;3.83;;;1.30;99.90;;;;;;4771779;30;20199;-86
2024/01/15 09:28:35;;;;;;;9.30;3.73;;;1.20;99.90;;;;;;4776294;30;20199;-87
2024/01/15 09:31:00;;;;;;;9.33;4.10;;;1.30;99.90;;;;;;4776410;30;20623;-88
2024/01/15 09:33:26;;;;;;;9.17;3.97;;;1.30;99.90;;;;;;4772449;30;20634;-88
2024/01/15 09:35:52;;;;;;;10.80;3.87;;;1.30;99.90;;;;;;4773632;30;20203;-88
2024/01/15 09:38:19;;;;;;;10.07;3.83;;;1.40;99.90;;;;;;4773500;30;20650;-88
2024/01/15 09:40:46;;;;;;;6.77;3.40;;;1.40;99.90;;;;;;4772821;30;20192;-88
2024/01/15 09:43:16;;;;;;;11.07;4.13;;;1.50;99.90;;;;;;4773176;30;20206;-87
2024/01/15 09:45:44;;;;;;;7.37;3.80;;;1.60;99.90;;;;;;4773430;30;20515;-87
2024/01/15 09:48:09;;;;;;;6.03;3.73;;;1.50;99.90;;;;;;4767011;30;20192;-87
2024/01/15 09:50:35;;;;;;;6.17;3.83;;;1.50;99.90;;;;;;4764748;30;20203;-86
2024/01/15 09:53:16;;;;;;;5.53;4.03;;;1.40;99.90;;;;;;4767877;30;20204;-86
2024/01/15 09:55:41;;;;;;;8.00;4.03;;;1.50;99.90;;;;;;4758038;30;20198;-85
2024/01/15 09:58:07;;;;;;;9.20;4.17;;;1.50;99.90;;;;;;4772807;30;20191;-89
2024/01/15 10:00:39;;;;;;;7.73;4.80;;;1.50;99.90;;;;;;4772952;30;20199;-87
2024/01/15 10:03:07;;;;;;;9.10;4.77;;;1.40;99.90;;;;;;4772692;30;20192;-88
2024/01/15 10:05:35;;;;;;;8.00;4.40;;;1.30;99.90;;;;;;4773059;30;20199;-88
2024/01/15 10:08:03;;;;;;;10.37;4.47;;;1.40;99.90;;;;;;4772689;30;20203;-86
2024/01/15 10:10:28;;;;;;;8.67;4.30;;;1.50;99.90;;;;;;4769697;30;20200;-86
2024/01/15 10:12:55;;;;;;;9.30;4.97;;;1.50;99.90;;;;;;4766741;30;20550;-88
2024/01/15 10:15:26;;;;;;;9.00;4.00;;;1.60;99.90;;;;;;4772780;30;20199;-85
2024/01/15 10:17:52;;;;;;;9.30;4.20;;;1.60;99.90;;;;;;4772606;30;20326;-88
2024/01/15 10:20:17;;;;;;;11.37;3.97;;;1.70;99.90;;;;;;4765439;30;20307;-86
2024/01/15 10:22:51;;;;;;;8.03;3.57;;;1.70;99.90;;;;;;4757791;30;20196;-85
2024/01/15 10:25:23;;;;;;;11.83;3.93;;;1.80;99.90;;;;;;4765565;30;20575;-87
2024/01/15 10:28:02;;;;;;;11.07;3.83;;;1.80;99.90;;;;;;4765584;30;20232;-87
2024/01/15 10:30:28;;;;;;;8.60;4.00;;;1.90;99.90;;;;;;4772556;30;20510;-86
2024/01/15 10:33:04;;;;;;;9.10;3.40;;;2.00;99.90;;;;;;4772344;30;20195;-85
2024/01/15 10:35:32;;;;;;;8.90;4.43;;;2.00;99.90;;;;;;4775369;30;20229;-85
2024/01/15 10:37:59;;;;;;;10.00;3.57;;;2.10;99.90;;;;;;4775337;30;20612;-87
2024/01/15 10:40:25;;;;;;;9.73;3.20;;;2.10;99.90;;;;;;4774552;30;20231;-85
2024/01/15 10:43:24;;;;;;;9.67;3.47;;;2.00;99.90;;;;;;4775127;30;20719;-87
2024/01/15 10:45:51;;;;;;;10.63;3.50;;;2.00;99.90;;;;;;4762283;30;20199;-85
2024/01/15 10:48:19;;;;;;;7.20;3.00;;;2.00;99.90;;;;;;4774907;30;20202;-85
2024/01/15 10:50:45;;;;;;;8.00;2.90;;;2.00;99.90;;;;;;4760443;30;20199;-86
2024/01/15 10:53:17;;;;;;;14.80;3.23;;;2.10;99.90;;;;;;4775139;30;20195;-86
2024/01/15 10:55:46;;;;;;;11.37;3.13;;;2.10;99.90;;;;;;4791189;30;20281;-86
2024/01/15 10:58:12;;;;;;;8.20;2.60;;;2.10;99.90;;;;;;4774959;30;20627;-86
2024/01/15 11:00:38;;;;;;;6.10;2.07;;;2.10;99.90;;;;;;4774911;30;20203;-92
2024/01/15 11:03:05;;;;;;;6.23;2.23;;;2.10;99.90;;;;;;4775136;30;20228;-85
2024/01/15 11:05:42;;;;;;;5.80;2.03;;;2.20;99.90;;;;;;4760427;30;20253;-88
2024/01/15 11:08:08;;;;;;;7.03;2.43;;;2.10;99.90;;;;;;4774992;30;20198;-86
2024/01/15 11:10:49;;;;;;;10.10;2.90;;;2.20;99.90;;;;;;4774058;30;20207;-87
2024/01/15 11:13:37;;;;;;;7.00;2.67;;;2.10;99.90;;;;;;4774521;30;20195;-85
2024/01/15 11:16:07;;;;;;;7.23;3.13;;;2.20;99.90;;;;;;4774917;30;20338;-86
2024/01/15 11:18:39;;;;;;;8.33;3.00;;;2.20;99.90;;;;;;4790419;29;20226;-85
2024/01/15 11:21:17;;;;;;;7.07;2.80;;;2.30;99.90;;;;;;4774536;30;20238;-93
2024/01/15 11:23:47;;;;;;;7.53;2.87;;;2.30;99.90;;;;;;4774642;30;20251;-86
2024/01/15 11:26:28;;;;;;;6.00;3.30;;;2.20;99.90;;;;;;4767678;30;20659;-86
2024/01/15 11:28:59;;;;;;;5.50;2.80;;;2.20;99.90;;;;;;4756633;30;20550;-89
2024/01/15 11:31:49;;;;;;;5.10;3.50;;;2.10;99.90;;;;;;4757336;30;20283;-88
2024/01/15 11:34:16;;;;;;;6.87;3.33;;;2.10;99.90;;;;;;4782766;29;20550;-86
2024/01/15 11:36:54;;;;;;;7.27;3.47;;;2.20;99.90;;;;;;4773393;30;20203;-85
2024/01/15 11:39:34;;;;;;;4.33;2.80;;;2.10;99.90;;;;;;4772893;30;20601;-86
2024/01/15 11:42:03;;;;;;;5.33;2.73;;;2.10;99.90;;;;;;4767962;30;20194;-86
2024/01/15 11:44:29;;;;;;;7.40;3.13;;;2.10;99.90;;;;;;4766047;30;20198;-89
2024/01/15 11:47:00;;;;;;;5.07;2.60;;;2.10;99.90;;;;;;4773377;30;20199;-85
2024/01/15 11:49:58;;;;;;;8.03;2.40;;;2.10;99.90;;;;;;4773301;30;20700;-85
2024/01/15 11:52:25;;;;;;;6.10;2.50;;;2.10;99.90;;;;;;4767714;30;20203;-85
2024/01/15 11:55:05;;;;;;;5.17;2.30;;;2.10;99.90;;;;;;4762763;30;20624;-87
2024/01/15 11:57:39;;;;;;;5.53;2.00;;;2.10;99.90;;;;;;4770047;30;20195;-86
2024/01/15 12:00:06;;;;;;;7.10;2.20;;;2.10;99.90;;;;;;4755512;30;20313;-86
2024/01/15 12:02:32;;;;;;;5.97;1.47;;;2.00;99.90;;;;;;4755512;30;20726;-87
2024/01/15 12:04:59;;;;;;;8.43;2.53;;;2.00;99.90;;;;;;4760272;30;20206;-90
2024/01/15 12:07:25;;;;;;;7.13;2.10;;;2.00;99.90;;;;;;4788930;30;20179;-86
2024/01/15 12:09:51;;;;;;;3.87;2.10;;;2.00;99.90;;;;;;4772090;30;20640;-86
2024/01/15 12:13:12;;;;;;;7.00;1.90;;;2.00;99.90;;;;;;4773096;30;20195;-87
2024/01/15 12:15:41;;;;;;;7.20;2.07;;;2.00;99.90;;;;;;4702137;30;20206;-85
2024/01/15 12:18:12;;;;;;;8.10;2.00;;;2.00;99.90;;;;;;4769691;30;20294;-85
2024/01/15 12:20:39;;;;;;;10.43;2.60;;;2.00;99.90;;;;;;4773132;30;20195;-85
2024/01/15 12:23:05;;;;;;;5.70;1.80;;;2.00;99.90;;;;;;4773048;30;20252;-85
2024/01/15 12:25:35;;;;;;;5.23;1.90;;;2.00;99.90;;;;;;4765813;30;20218;-85
2024/01/15 12:28:02;;;;;;;14.70;2.47;;;1.90;99.90;;;;;;4765460;30;20202;-85
2024/01/15 12:30:29;;;;;;;9.63;2.43;;;2.00;99.90;;;;;;4772503;30;20202;-86
2024/01/15 12:32:55;;;;;;;7.70;2.17;;;2.00;99.90;;;;;;4789898;29;20191;-85
2024/01/15 12:35:20;;;;;;;10.27;2.27;;;2.00;99.90;;;;;;4733138;30;1231457;-88
2024/01/15 12:37:47;;;;;;;4.03;2.10;;;2.10;99.90;;;;;;4767224;30;20555;-85
2024/01/15 12:40:18;;;;;;;11.13;2.10;;;2.10;99.90;;;;;;4773684;30;20235;-86
2024/01/15 12:42:44;;;;;;;6.87;2.30;;;2.10;99.90;;;;;;4766658;30;20207;-86
2024/01/15 12:45:12;;;;;;;7.40;2.03;;;2.20;99.90;;;;;;4766869;30;20204;-86
2024/01/15 12:47:38;;;;;;;8.77;2.20;;;2.20;99.90;;;;;;4774128;30;20203;-87
2024/01/15 12:50:11;;;;;;;8.87;2.10;;;2.20;99.90;;;;;;4774164;30;20196;-85
2024/01/15 12:52:40;;;;;;;7.10;2.03;;;2.30;99.90;;;;;;4773981;30;20230;-85
2024/01/15 12:55:18;;;;;;;7.43;1.90;;;2.40;99.90;;;;;;4773963;30;20192;-90
2024/01/15 12:57:45;;;;;;;5.10;1.80;;;2.40;99.90;;;;;;4773574;30;20239;-85